Lincoln Acres, CA (91947)

12:07 AM PST on March 05, 2015 (GMT -0800)
Chula Vista | Change Station
CLOSE
Current Station
Personal Weather Station
Location: Chula Vista, CA
Elevation: 50 ft
Nearby Weather Stations

Elev 50 ft 32.65 °N, 117.07 °W | Updated 2 minutes ago

Clear
Clear
50.1 °F
Feels Like 50.1 °F
N
0.0
Wind Variable Wind from NW
Gusts 0.0 mph

Today
High -- | Low -- °F
--% Chance of Precip.
Yesterday
High -- | Low -- °F
Precip. -- in
6:11 AM 5:48 PM
Full, 100% visible
Pressure 30.17 in
Visibility -9999.0 miles
Clouds Clear
Dew Point 46 °F
Humidity 85%
Rainfall in
Snow Depth Not available.
UV 0 out of 12
Pollen 8.50 out of 12
Air Quality Not available.
Flu Activity Not available.
METAR KNRS 050756Z AUTO 09007KT CLR 11/09 A3017 RMK AO2 SLP214 T01060089 401890089 PNO $

More Conditions Fewer Conditions

Pressure 30.17 in
Visibility -9999.0 miles
Clouds Clear
Dew Point 46 °F
Humidity 85%
Rainfall in
Snow Depth Not available.
UV 0 out of 12
Pollen 8.50 out of 12
Air Quality Not available.
Flu Activity Not available.
METAR KNRS 050756Z AUTO 09007KT CLR 11/09 A3017 RMK AO2 SLP214 T01060089 401890089 PNO $

More Conditions Fewer Conditions

10-Day Weather Forecast

Almanac

Astronomy

Mar. 05, 2015 Rise Set
Actual Time
Civil Twilight
Nautical Twilight
Astronomical Twilight
Moon
Length of Visible Light
Length of Day
Tomorrow will be .
, % of the Moon is Illuminated

Today's Extremes

State Highs State Lows

Community

WunderPhotos

Upload Photos

1,802,704 photos uploaded!

WunderBlogs® & News

Nearby

Air Quality

  Air Quality AQ Index Pollutant
Not available.

Snow Depth

Station Depth Elevation

Earthquake Activity

City Distance Mag. Time & Date
Minimum magnitude displayed is 2.5.

Coastal Water Temperatures

Place Temperature

Nearby Weather Stations